Wetterdaten für den Flughafen Lübeck Blankensee


ADDS - METARS form results Aviation Digital Data Service (ADDS) Output produced by METARs form (2011 UTC 17 November 2019)
found at http://www.aviationweather.gov/metar/data/
 
EDHL 171850Z 04008KT 9999 BKN031 07/05 Q1011
TAF EDHL 171700Z 1718/1721 05008KT 9999 FEW020 BKN040 BECMG 1719/1721 BKN013

Nord: Hamburg, Lübeck
Ost: Schwerin, Rostock
Süd: Hannover
West: Bremen, Nordhloz

 

Copyright © 2016 Flugschule Hohensee